Latest Weather Observations for Pirlangimpi

IDD60801

Issued at 5:35 pm CST Sunday 21 September 2014 (issued every 30 minutes, with the page automatically refreshed every 10 minutes)

About weather observations | Map of weather stations | Latest weather observations for NT | Other Formats
Station Details ID: 014142 Name: PIRLANGIMPI AIRPORT Lat: -11.40 Lon: 130.42 Height: 18.3 m
Data from the previous 72 hours. | See also: Recent months at Pirlangimpi
Date/Time
CST
Temp
°C
App
Temp
°C
Dew
Point
Rel
Hum
%
Delta-T
°C
Wind Press
QNH
hPa
Press
MSL
hPa
Rain
since 9 am
mm
Dir
 
Spd
km/h
Gust
km/h
Spd
kts
Gust
kts
21/05:30pm 29.0 31.3 19.9 58 6.0 NW 7 13 4 7 1012.2 1012.1 0.0
21/05:00pm 29.3 30.5 19.0 53 6.7 NW 11 19 6 10 1012.1 1012.0 0.0
21/04:30pm 30.3 31.7 19.6 52 7.0 NNW 11 20 6 11 1012.0 1011.9 0.0
21/04:00pm 31.2 32.9 20.2 52 7.3 NNW 11 22 6 12 1011.9 1011.8 0.0
21/03:30pm 31.4 32.6 20.0 50 7.5 NW 13 20 7 11 1011.7 1011.6 0.0
21/03:00pm 31.5 33.2 20.1 50 7.5 NW 11 22 6 12 1011.6 1011.5 0.0
21/02:30pm 31.2 31.9 20.5 53 7.1 NW 17 28 9 15 1011.7 1011.6 0.0
21/02:00pm 32.2 33.6 21.1 52 7.5 NW 15 32 8 17 1011.9 1011.8 0.0
21/01:30pm 31.6 32.7 21.2 54 7.0 NW 17 28 9 15 1012.2 1012.1 0.0
21/01:00pm 31.8 33.3 19.8 49 7.9 NW 11 20 6 11 1012.8 1012.7 0.0
21/12:30pm 33.6 35.9 18.5 40 9.8 NW 4 17 2 9 1013.3 1013.2 0.0
21/12:00pm 34.0 34.7 15.5 33 11.6 ENE 6 13 3 7 1013.9 1013.8 0.0
21/11:30am 34.0 34.4 16.4 35 11.1 NE 9 20 5 11 1014.6 1014.5 0.0
21/11:00am 32.4 32.6 15.8 36 10.4 NE 9 17 5 9 1015.2 1015.1 0.0
21/10:30am 31.9 32.2 17.0 41 9.4 E 11 22 6 12 1015.5 1015.4 0.0
21/10:00am 30.1 32.3 19.5 53 6.9 S 7 13 4 7 1015.7 1015.6 0.0
21/09:30am 28.3 30.5 19.2 57 5.9 S 6 11 3 6 1015.6 1015.5 0.0
21/09:00am 27.0 29.9 19.9 65 4.6 S 4 7 2 4 1015.5 1015.4 0.0
21/08:30am 25.2 28.6 20.9 77 2.8 SSE 4 7 2 4 1015.3 1015.2 0.0
21/08:00am 23.1 26.7 21.2 89 1.2 SE 4 6 2 3 1015.1 1015.0 0.0
21/07:30am 20.4 23.8 19.4 94 0.6 CALM 0 0 0 0 1014.7 1014.6 0.0
21/07:00am 19.3 22.1 18.0 92 0.8 CALM 0 0 0 0 1014.2 1014.1 0.0
21/06:30am 19.2 22.0 17.9 92 0.8 CALM 0 0 0 0 1013.9 1013.8 0.0
21/06:00am 19.3 22.0 17.8 91 0.9 CALM 0 0 0 0 1013.5 1013.4 0.0
21/05:30am 19.4 22.1 17.7 90 1.0 CALM 0 0 0 0 1013.2 1013.1 0.0
21/05:00am 19.6 22.4 17.9 90 1.0 CALM 0 0 0 0 1012.9 1012.8 0.0
21/04:30am 19.9 22.9 18.4 91 0.9 CALM 0 0 0 0 1013.0 1012.9 0.0
21/04:00am 20.2 23.1 18.3 89 1.2 CALM 0 0 0 0 1013.0 1012.9 0.0
21/03:30am 20.7 23.9 18.8 89 1.2 CALM 0 0 0 0 1013.1 1013.0 0.0
21/03:00am 20.7 23.8 18.6 88 1.3 CALM 0 0 0 0 1013.0 1012.9 0.0
21/02:30am 20.7 23.3 18.3 86 1.5 E 2 4 1 2 1013.3 1013.2 0.0
21/02:00am 21.0 23.9 18.2 84 1.7 CALM 0 0 0 0 1013.6 1013.5 0.0
21/01:30am 21.7 24.1 18.7 83 1.9 SE 4 7 2 4 1014.0 1013.9 0.0
21/01:00am 21.6 24.0 18.8 84 1.8 SSE 4 6 2 3 1014.1 1014.0 0.0
21/12:30am 20.7 23.2 17.3 81 2.1 CALM 0 4 0 2 1014.0 1013.9 0.0
21/12:00am 20.9 23.0 17.3 80 2.2 ENE 2 4 1 2 1014.1 1014.0 0.0
 
Date/Time
CST
Temp
°C
App
Temp
°C
Dew
Point
Rel
Hum
%
Delta-T
°C
Wind Press
QNH
hPa
Press
MSL
hPa
Rain
since 9 am
mm
Dir
 
Spd
km/h
Gust
km/h
Spd
kts
Gust
kts
20/11:30pm 21.2 23.7 17.2 78 2.4 CALM 0 4 0 2 1014.1 1014.0 0.0
20/11:00pm 21.3 23.7 17.1 77 2.6 CALM 0 0 0 0 1014.1 1014.0 0.0
20/10:30pm 21.6 24.0 17.0 75 2.8 SSW 0 0 0 0 1013.7 1013.6 0.0
20/10:00pm 22.3 24.7 17.0 72 3.3 CALM 0 0 0 0 1013.4 1013.3 0.0
20/09:30pm 23.5 25.9 17.0 67 4.0 CALM 0 0 0 0 1013.1 1013.0 0.0
20/09:00pm 24.3 25.7 17.8 67 4.1 NE 7 15 4 8 1012.5 1012.4 0.0
20/08:30pm 24.7 26.1 18.6 69 3.9 NE 9 19 5 10 1012.3 1012.2 0.0
20/08:00pm 25.2 26.6 19.6 71 3.6 NE 11 20 6 11 1012.2 1012.1 0.0
20/07:30pm 25.6 27.0 19.5 69 3.9 NE 11 19 6 10 1011.9 1011.8 0.0
20/07:00pm 26.4 27.5 18.0 60 5.3 NE 9 22 5 12 1011.6 1011.5 0.0
20/06:30pm 27.4 28.0 17.8 55 6.1 NE 11 20 6 11 1011.4 1011.3 0.0
20/06:00pm 28.3 29.6 18.4 55 6.3 NNE 9 22 5 12 1011.2 1011.1 0.0
20/05:30pm 30.4 31.0 18.5 49 7.7 NE 13 26 7 14 1011.0 1010.9 0.0
20/05:00pm 30.8 30.8 18.2 47 8.1 NE 15 26 8 14 1010.7 1010.6 0.0
20/04:30pm 32.6 33.3 18.0 41 9.4 NE 11 19 6 10 1010.6 1010.5 0.0
20/04:00pm 32.9 33.8 18.3 42 9.5 NNE 11 22 6 12 1010.5 1010.4 0.0
20/03:30pm 33.4 33.6 16.7 36 10.6 NNE 11 24 6 13 1010.6 1010.5 0.0
20/03:00pm 34.5 34.5 17.3 36 11.1 ENE 13 26 7 14 1010.8 1010.7 0.0
20/02:30pm 36.6 37.4 18.2 34 12.0 E 11 26 6 14 1011.2 1011.1 0.0
20/02:00pm 35.5 33.1 12.5 25 13.8 ESE 17 30 9 16 1011.5 1011.4 0.0
20/01:30pm 36.0 34.1 12.9 25 14.0 E 15 28 8 15 1012.0 1011.9 0.0
20/01:00pm 35.8 33.8 13.9 27 13.5 E 17 30 9 16 1012.9 1012.8 0.0
20/12:30pm 34.9 31.9 12.5 25 13.4 ENE 20 33 11 18 1013.5 1013.4 0.0
20/12:00pm 35.3 33.0 12.9 26 13.5 ENE 17 30 9 16 1014.2 1014.1 0.0
20/11:30am 33.3 31.9 13.4 30 12.0 E 13 24 7 13 1014.6 1014.5 0.0
20/11:00am 32.2 32.8 15.2 35 10.5 SSE 6 13 3 7 1015.0 1014.9 0.0
20/10:30am 32.1 33.2 17.2 41 9.5 NE 7 13 4 7 1015.3 1015.2 0.0
20/10:00am 30.7 31.8 18.1 47 8.1 SE 9 19 5 10 1015.5 1015.4 0.0
20/09:30am 29.6 31.4 18.4 51 7.2 E 6 15 3 8 1015.4 1015.3 0.0
20/09:00am 27.3 30.5 20.6 67 4.4 S 4 6 2 3 1015.4 1015.3 0.0
20/08:30am 25.6 30.4 22.1 81 2.3 CALM 0 0 0 0 1015.2 1015.1 0.0
20/08:00am 22.0 26.5 21.5 97 0.3 CALM 0 0 0 0 1014.9 1014.8 0.0
20/07:30am 20.0 23.4 19.3 96 0.4 CALM 0 0 0 0 1014.5 1014.4 0.0
20/07:00am 19.2 22.1 18.2 94 0.6 CALM 0 0 0 0 1014.2 1014.1 0.0
20/06:30am 19.2 22.0 18.0 93 0.7 CALM 0 0 0 0 1013.8 1013.7 0.0
20/06:00am 19.7 22.8 18.7 94 0.6 CALM 0 0 0 0 1013.6 1013.5 0.0
20/05:30am 19.9 23.1 18.9 94 0.6 CALM 0 0 0 0 1013.4 1013.3 0.0
20/05:00am 19.9 23.1 18.9 94 0.6 CALM 0 0 0 0 1013.3 1013.2 0.0
20/04:30am 19.9 22.6 18.6 92 0.8 E 2 4 1 2 1013.4 1013.3 0.0
20/04:00am 20.8 24.3 19.6 93 0.8 CALM 0 0 0 0 1013.5 1013.4 0.0
20/03:30am 21.2 25.0 20.2 94 0.6 CALM 0 0 0 0 1013.7 1013.6 0.0
20/03:00am 21.3 25.1 20.1 93 0.8 CALM 0 0 0 0 1013.7 1013.6 0.0
20/02:30am 21.0 24.5 19.5 91 1.0 CALM 0 0 0 0 1013.8 1013.7 0.0
20/02:00am 21.1 24.4 19.2 89 1.2 CALM 0 0 0 0 1014.1 1014.0 0.0
20/01:30am 21.3 24.6 19.2 88 1.3 CALM 0 0 0 0 1014.6 1014.5 0.0
20/01:00am 21.4 24.8 19.3 88 1.3 CALM 0 0 0 0 1015.0 1014.9 0.0
20/12:30am 21.6 25.1 19.5 88 1.3 CALM 0 0 0 0 1015.2 1015.1 0.0
20/12:00am 21.7 25.1 19.3 86 1.5 CALM 0 0 0 0 1015.4 1015.3 0.0
 
Date/Time
CST
Temp
°C
App
Temp
°C
Dew
Point
Rel
Hum
%
Delta-T
°C
Wind Press
QNH
hPa
Press
MSL
hPa
Rain
since 9 am
mm
Dir
 
Spd
km/h
Gust
km/h
Spd
kts
Gust
kts
19/11:30pm 21.9 25.4 19.6 87 1.5 CALM 0 0 0 0 1015.4 1015.3 0.0
19/11:00pm 22.1 25.7 19.8 87 1.5 CALM 0 0 0 0 1015.2 1015.1 0.0
19/10:30pm 22.4 26.0 19.8 85 1.7 CALM 0 2 0 1 1015.2 1015.1 0.0
19/10:00pm 22.8 25.9 19.6 82 2.0 ENE 2 4 1 2 1015.1 1015.0 0.0
19/09:30pm 22.9 26.4 19.5 81 2.2 CALM 0 0 0 0 1014.6 1014.5 0.0
19/09:00pm 23.4 26.9 19.5 79 2.5 CALM 0 0 0 0 1014.3 1014.2 0.0
19/08:30pm 24.1 27.5 19.4 75 3.0 CALM 0 0 0 0 1013.8 1013.7 0.0
19/08:00pm 24.5 27.6 19.6 74 3.2 WNW 2 6 1 3 1013.3 1013.2 0.0
19/07:30pm 25.0 28.0 18.4 66 4.2 CALM 0 2 0 1 1012.9 1012.8 0.0
19/07:00pm 26.2 28.5 18.6 63 4.8 N 4 9 2 5 1012.4 1012.3 0.0
19/06:30pm 27.5 29.5 18.8 59 5.6 N 6 11 3 6 1012.0 1011.9 0.0
19/06:00pm 28.7 30.5 18.2 53 6.7 N 6 11 3 6 1011.6 1011.5 0.0
19/05:30pm 29.6 32.5 21.8 63 5.3 NNW 9 17 5 9 1011.3 1011.2 0.0
19/05:00pm 30.1 32.6 21.7 60 5.7 NW 11 19 6 10 1011.2 1011.1 0.0
19/04:30pm 31.0 33.4 21.5 57 6.4 NW 11 22 6 12 1011.4 1011.3 0.0
19/04:00pm 31.2 32.8 21.4 56 6.6 NNW 15 26 8 14 1011.5 1011.4 0.0
19/03:30pm 32.1 33.8 21.6 53 7.1 NW 15 26 8 14 1011.4 1011.3 0.0
19/03:00pm 31.3 32.6 20.9 54 7.0 NNW 15 28 8 15 1011.6 1011.5 0.0
19/02:30pm 32.9 34.5 20.8 49 8.1 NNW 13 26 7 14 1011.9 1011.8 0.0
19/02:25pm 32.6 34.7 20.2 48 8.2 NNW 9 19 5 10 1011.9 1011.8 0.0
19/02:00pm 37.8 34.3 8.6 17 16.7 NE 17 30 9 16 1011.9 1011.8 0.0
19/01:30pm 38.0 35.4 7.8 16 17.1 E 11 24 6 13 1012.2 1012.1 0.0
19/01:00pm 35.8 33.2 10.8 22 14.7 SSW 15 26 8 14 1012.6 1012.5 0.0
19/12:30pm 36.2 36.4 14.8 28 13.3 WSW 7 15 4 8 1013.1 1013.0 0.0
19/12:00pm 33.6 33.3 16.5 36 10.8 SSW 13 20 7 11 1013.8 1013.7 0.0
19/11:30am 32.2 32.5 18.0 42 9.1 SSW 13 19 7 10 1014.4 1014.3 0.0
19/11:00am 31.0 31.4 19.0 48 7.8 SSW 15 19 8 10 1015.0 1014.9 0.0
19/10:30am 30.2 32.2 19.9 54 6.8 SSW 9 15 5 8 1015.4 1015.3 0.0
19/10:00am 30.5 31.9 19.5 51 7.2 ESE 11 17 6 9 1015.7 1015.6 0.0
19/09:30am 29.7 30.9 19.1 53 6.9 E 11 19 6 10 1015.8 1015.7 0.0
19/09:00am 28.6 31.3 20.3 60 5.5 ESE 6 9 3 5 1015.9 1015.8 0.0
19/08:30am 25.1 28.7 20.6 76 2.9 SE 2 6 1 3 1015.8 1015.7 0.0
19/08:00am 22.3 25.8 21.1 93 0.8 E 4 6 2 3 1015.7 1015.6 0.0
19/07:30am 20.8 24.2 20.1 96 0.4 ESE 2 4 1 2 1015.2 1015.1 0.0
19/07:00am 20.0 23.0 19.2 95 0.5 ESE 2 4 1 2 1014.7 1014.6 0.0
19/06:30am 20.1 23.5 19.3 95 0.5 CALM 0 0 0 0 1014.5 1014.4 0.0
19/06:00am 20.1 23.4 19.1 94 0.6 CALM 0 2 0 1 1014.4 1014.3 0.0
19/05:30am 20.3 23.4 19.5 95 0.5 E 2 4 1 2 1014.0 1013.9 0.0
19/05:00am 20.5 24.0 19.5 94 0.6 CALM 0 0 0 0 1013.8 1013.7 0.0
19/04:30am 20.7 24.2 19.5 93 0.8 CALM 0 0 0 0 1013.6 1013.5 0.0
19/04:00am 21.1 24.9 20.1 94 0.6 CALM 0 0 0 0 1013.7 1013.6 0.0
19/03:30am 21.3 25.2 20.3 94 0.6 CALM 0 0 0 0 1013.7 1013.6 0.0
19/03:00am 21.3 25.2 20.3 94 0.6 CALM 0 0 0 0 1013.9 1013.8 0.0
19/02:30am 21.3 25.1 20.1 93 0.8 CALM 0 0 0 0 1014.1 1014.0 0.0
19/02:00am 21.6 25.5 20.4 93 0.8 CALM 0 0 0 0 1014.1 1014.0 0.0
19/01:30am 21.8 25.9 20.8 94 0.6 CALM 0 0 0 0 1014.3 1014.2 0.0
19/01:00am 21.5 25.4 20.3 93 0.8 CALM 0 0 0 0 1014.7 1014.6 0.0
19/12:30am 21.5 25.2 20.0 91 1.0 CALM 0 0 0 0 1014.9 1014.8 0.0
19/12:00am 21.7 25.6 20.3 92 0.9 CALM 0 0 0 0 1015.2 1015.1 0.0
 
Date/Time
CST
Temp
°C
App
Temp
°C
Dew
Point
Rel
Hum
%
Delta-T
°C
Wind Press
QNH
hPa
Press
MSL
hPa
Rain
since 9 am
mm
Dir
 
Spd
km/h
Gust
km/h
Spd
kts
Gust
kts
18/11:30pm 21.9 25.8 20.4 91 1.0 CALM 0 0 0 0 1015.4 1015.3 0.0
18/11:00pm 22.1 25.9 20.2 89 1.2 CALM 0 0 0 0 1015.2 1015.1 0.0
18/10:30pm 22.4 26.4 20.5 89 1.2 CALM 0 0 0 0 1015.1 1015.0 0.0
18/10:00pm 22.8 26.9 20.7 88 1.4 CALM 0 0 0 0 1014.9 1014.8 0.0
18/09:30pm 23.2 27.3 20.7 86 1.6 CALM 0 0 0 0 1014.5 1014.4 0.0
18/09:00pm 23.7 27.8 20.8 84 1.9 CALM 0 0 0 0 1014.2 1014.1 0.0
18/08:30pm 24.3 27.6 20.8 81 2.3 N 4 6 2 3 1014.0 1013.9 0.0
18/08:00pm 24.8 28.7 20.3 76 2.9 CALM 0 0 0 0 1013.8 1013.7 0.0
18/07:30pm 25.6 28.9 19.9 70 3.7 NNW 2 4 1 2 1013.4 1013.3 0.0
18/07:00pm 26.4 29.6 20.5 70 3.9 N 4 7 2 4 1013.0 1012.9 0.0
18/06:30pm 27.3 30.1 20.4 66 4.5 NNE 6 13 3 7 1012.6 1012.5 0.0
18/06:00pm 28.3 30.7 20.1 61 5.4 N 7 13 4 7 1012.3 1012.2 0.0

Other Formats:

Comma delimited format used in spreadsheet applications
http://www.bom.gov.au/fwo/IDD60801/IDD60801.94119.axf

JavaScript Object Notation format (JSON) in row-major order
http://www.bom.gov.au/fwo/IDD60801/IDD60801.94119.json